sensor_id;sensor_type;location;lat;lon;timestamp;temperature;humidity
18384;DHT22;9318;48.644;9.456;2023-11-21T00:01:55;8.30;99.90
18384;DHT22;9318;48.644;9.456;2023-11-21T00:04:22;8.30;99.90
18384;DHT22;9318;48.644;9.456;2023-11-21T00:06:50;8.20;99.90
18384;DHT22;9318;48.644;9.456;2023-11-21T00:09:17;8.20;99.90
18384;DHT22;9318;48.644;9.456;2023-11-21T00:11:45;8.20;99.90
18384;DHT22;9318;48.644;9.456;2023-11-21T00:14:12;8.20;99.90
18384;DHT22;9318;48.644;9.456;2023-11-21T00:16:40;8.20;99.90
18384;DHT22;9318;48.644;9.456;2023-11-21T00:19:07;8.20;99.90
18384;DHT22;9318;48.644;9.456;2023-11-21T00:21:34;8.30;99.90
18384;DHT22;9318;48.644;9.456;2023-11-21T00:24:02;8.30;99.90
18384;DHT22;9318;48.644;9.456;2023-11-21T00:26:29;8.30;99.90
18384;DHT22;9318;48.644;9.456;2023-11-21T00:28:56;8.20;99.90
18384;DHT22;9318;48.644;9.456;2023-11-21T00:31:23;8.30;99.90
18384;DHT22;9318;48.644;9.456;2023-11-21T00:33:50;8.20;99.90
18384;DHT22;9318;48.644;9.456;2023-11-21T00:36:16;8.20;99.90
18384;DHT22;9318;48.644;9.456;2023-11-21T00:38:43;8.20;99.90
18384;DHT22;9318;48.644;9.456;2023-11-21T00:41:11;8.20;99.90
18384;DHT22;9318;48.644;9.456;2023-11-21T00:43:38;8.30;99.90
18384;DHT22;9318;48.644;9.456;2023-11-21T00:46:05;8.30;99.90
18384;DHT22;9318;48.644;9.456;2023-11-21T00:48:32;8.40;99.90
18384;DHT22;9318;48.644;9.456;2023-11-21T00:50:59;8.40;99.90
18384;DHT22;9318;48.644;9.456;2023-11-21T00:53:26;8.40;99.90
18384;DHT22;9318;48.644;9.456;2023-11-21T00:55:53;8.40;99.90
18384;DHT22;9318;48.644;9.456;2023-11-21T00:58:24;8.40;99.90
18384;DHT22;9318;48.644;9.456;2023-11-21T01:00:50;8.40;99.90
18384;DHT22;9318;48.644;9.456;2023-11-21T01:03:17;8.40;99.90
18384;DHT22;9318;48.644;9.456;2023-11-21T01:05:44;8.40;99.90
18384;DHT22;9318;48.644;9.456;2023-11-21T01:08:11;8.50;99.90
18384;DHT22;9318;48.644;9.456;2023-11-21T01:10:38;8.50;99.90
18384;DHT22;9318;48.644;9.456;2023-11-21T01:13:05;8.50;99.90
18384;DHT22;9318;48.644;9.456;2023-11-21T01:15:34;8.50;99.90
18384;DHT22;9318;48.644;9.456;2023-11-21T01:18:00;8.50;99.90
18384;DHT22;9318;48.644;9.456;2023-11-21T01:20:29;8.50;99.90
18384;DHT22;9318;48.644;9.456;2023-11-21T01:22:55;8.60;99.90
18384;DHT22;9318;48.644;9.456;2023-11-21T01:25:22;8.60;99.90
18384;DHT22;9318;48.644;9.456;2023-11-21T01:27:49;8.60;99.90
18384;DHT22;9318;48.644;9.456;2023-11-21T01:30:15;8.60;99.90
18384;DHT22;9318;48.644;9.456;2023-11-21T01:32:44;8.50;99.90
18384;DHT22;9318;48.644;9.456;2023-11-21T01:35:11;8.50;99.90
18384;DHT22;9318;48.644;9.456;2023-11-21T01:37:38;8.50;99.90
18384;DHT22;9318;48.644;9.456;2023-11-21T01:40:05;8.50;99.90
18384;DHT22;9318;48.644;9.456;2023-11-21T01:42:35;8.50;99.90
18384;DHT22;9318;48.644;9.456;2023-11-21T01:45:02;8.50;99.90
18384;DHT22;9318;48.644;9.456;2023-11-21T01:47:30;8.50;99.90
18384;DHT22;9318;48.644;9.456;2023-11-21T01:49:59;8.60;99.90
18384;DHT22;9318;48.644;9.456;2023-11-21T01:52:26;8.50;99.90
18384;DHT22;9318;48.644;9.456;2023-11-21T01:54:53;8.50;99.90
18384;DHT22;9318;48.644;9.456;2023-11-21T01:57:20;8.50;99.90
18384;DHT22;9318;48.644;9.456;2023-11-21T01:59:48;8.60;99.90
18384;DHT22;9318;48.644;9.456;2023-11-21T02:02:15;8.60;99.90
18384;DHT22;9318;48.644;9.456;2023-11-21T02:04:42;8.60;99.90
18384;DHT22;9318;48.644;9.456;2023-11-21T02:07:10;8.60;99.90
18384;DHT22;9318;48.644;9.456;2023-11-21T02:09:37;8.60;99.90
18384;DHT22;9318;48.644;9.456;2023-11-21T02:12:08;8.60;99.90
18384;DHT22;9318;48.644;9.456;2023-11-21T02:14:36;8.70;99.90
18384;DHT22;9318;48.644;9.456;2023-11-21T02:17:03;8.70;99.90
18384;DHT22;9318;48.644;9.456;2023-11-21T02:19:30;8.70;99.90
18384;DHT22;9318;48.644;9.456;2023-11-21T02:21:58;8.70;99.90
18384;DHT22;9318;48.644;9.456;2023-11-21T02:24:29;8.60;99.90
18384;DHT22;9318;48.644;9.456;2023-11-21T02:26:57;8.60;99.90
18384;DHT22;9318;48.644;9.456;2023-11-21T02:29:24;8.60;99.90
18384;DHT22;9318;48.644;9.456;2023-11-21T02:31:53;8.60;99.90
18384;DHT22;9318;48.644;9.456;2023-11-21T02:34:21;8.60;99.90
18384;DHT22;9318;48.644;9.456;2023-11-21T02:36:48;8.60;99.90
18384;DHT22;9318;48.644;9.456;2023-11-21T02:39:17;8.60;99.90
18384;DHT22;9318;48.644;9.456;2023-11-21T02:41:48;8.60;99.90
18384;DHT22;9318;48.644;9.456;2023-11-21T02:44:15;8.60;99.90
18384;DHT22;9318;48.644;9.456;2023-11-21T02:46:42;8.60;99.90
18384;DHT22;9318;48.644;9.456;2023-11-21T02:49:09;8.60;99.90
18384;DHT22;9318;48.644;9.456;2023-11-21T02:51:36;8.60;99.90
18384;DHT22;9318;48.644;9.456;2023-11-21T02:54:03;8.50;99.90
18384;DHT22;9318;48.644;9.456;2023-11-21T02:56:32;8.50;99.90
18384;DHT22;9318;48.644;9.456;2023-11-21T02:59:00;8.50;99.90
18384;DHT22;9318;48.644;9.456;2023-11-21T03:01:28;8.50;99.90
18384;DHT22;9318;48.644;9.456;2023-11-21T03:03:54;8.60;99.90
18384;DHT22;9318;48.644;9.456;2023-11-21T03:06:22;8.60;99.90
18384;DHT22;9318;48.644;9.456;2023-11-21T03:08:49;8.50;99.90
18384;DHT22;9318;48.644;9.456;2023-11-21T03:11:16;8.50;99.90
18384;DHT22;9318;48.644;9.456;2023-11-21T03:13:43;8.50;99.90
18384;DHT22;9318;48.644;9.456;2023-11-21T03:16:13;8.50;99.90
18384;DHT22;9318;48.644;9.456;2023-11-21T03:18:40;8.60;99.90
18384;DHT22;9318;48.644;9.456;2023-11-21T03:21:07;8.60;99.90
18384;DHT22;9318;48.644;9.456;2023-11-21T03:23:34;8.60;99.90
18384;DHT22;9318;48.644;9.456;2023-11-21T03:26:01;8.60;99.90
18384;DHT22;9318;48.644;9.456;2023-11-21T03:28:27;8.60;99.90
18384;DHT22;9318;48.644;9.456;2023-11-21T03:30:55;8.60;99.90
18384;DHT22;9318;48.644;9.456;2023-11-21T03:33:24;8.60;99.90
18384;DHT22;9318;48.644;9.456;2023-11-21T03:35:51;8.60;99.90
18384;DHT22;9318;48.644;9.456;2023-11-21T03:38:18;8.60;99.90
18384;DHT22;9318;48.644;9.456;2023-11-21T03:40:45;8.60;99.90
18384;DHT22;9318;48.644;9.456;2023-11-21T03:43:13;8.60;99.90
18384;DHT22;9318;48.644;9.456;2023-11-21T03:45:39;8.60;99.90
18384;DHT22;9318;48.644;9.456;2023-11-21T03:48:07;8.60;99.90
18384;DHT22;9318;48.644;9.456;2023-11-21T03:50:35;8.50;99.90
18384;DHT22;9318;48.644;9.456;2023-11-21T03:53:02;8.50;99.90
18384;DHT22;9318;48.644;9.456;2023-11-21T03:55:29;8.50;99.90
18384;DHT22;9318;48.644;9.456;2023-11-21T03:57:57;8.50;99.90
18384;DHT22;9318;48.644;9.456;2023-11-21T04:00:24;8.50;99.90
18384;DHT22;9318;48.644;9.456;2023-11-21T04:02:52;8.50;99.90
18384;DHT22;9318;48.644;9.456;2023-11-21T04:05:20;8.50;99.90
18384;DHT22;9318;48.644;9.456;2023-11-21T04:07:48;8.50;99.90
18384;DHT22;9318;48.644;9.456;2023-11-21T04:10:15;8.50;99.90
18384;DHT22;9318;48.644;9.456;2023-11-21T04:12:42;8.50;99.90
18384;DHT22;9318;48.644;9.456;2023-11-21T04:15:09;8.50;99.90
18384;DHT22;9318;48.644;9.456;2023-11-21T04:17:36;8.50;99.90
18384;DHT22;9318;48.644;9.456;2023-11-21T04:20:04;8.50;99.90
18384;DHT22;9318;48.644;9.456;2023-11-21T04:22:34;8.40;99.90
18384;DHT22;9318;48.644;9.456;2023-11-21T04:25:02;8.40;99.90
18384;DHT22;9318;48.644;9.456;2023-11-21T04:27:29;8.40;99.90
18384;DHT22;9318;48.644;9.456;2023-11-21T04:29:56;8.40;99.90
18384;DHT22;9318;48.644;9.456;2023-11-21T04:32:22;8.40;99.90
18384;DHT22;9318;48.644;9.456;2023-11-21T04:34:49;8.40;99.90
18384;DHT22;9318;48.644;9.456;2023-11-21T04:37:16;8.40;99.90
18384;DHT22;9318;48.644;9.456;2023-11-21T04:39:42;8.40;99.90
18384;DHT22;9318;48.644;9.456;2023-11-21T04:42:10;8.40;99.90
18384;DHT22;9318;48.644;9.456;2023-11-21T04:44:38;8.40;99.90
18384;DHT22;9318;48.644;9.456;2023-11-21T04:47:06;8.40;99.90
18384;DHT22;9318;48.644;9.456;2023-11-21T04:49:33;8.40;99.90
18384;DHT22;9318;48.644;9.456;2023-11-21T04:52:00;8.30;99.90
18384;DHT22;9318;48.644;9.456;2023-11-21T04:54:27;8.40;99.90
18384;DHT22;9318;48.644;9.456;2023-11-21T04:56:54;8.30;99.90
18384;DHT22;9318;48.644;9.456;2023-11-21T04:59:22;8.30;99.90
18384;DHT22;9318;48.644;9.456;2023-11-21T05:01:50;8.30;99.90
18384;DHT22;9318;48.644;9.456;2023-11-21T05:04:16;8.30;99.90
18384;DHT22;9318;48.644;9.456;2023-11-21T05:06:43;8.20;99.90
18384;DHT22;9318;48.644;9.456;2023-11-21T05:09:10;8.30;99.90
18384;DHT22;9318;48.644;9.456;2023-11-21T05:11:38;8.30;99.90
18384;DHT22;9318;48.644;9.456;2023-11-21T05:14:06;8.30;99.90
18384;DHT22;9318;48.644;9.456;2023-11-21T05:16:35;8.30;99.90
18384;DHT22;9318;48.644;9.456;2023-11-21T05:19:02;8.30;99.90
18384;DHT22;9318;48.644;9.456;2023-11-21T05:21:30;8.30;99.90
18384;DHT22;9318;48.644;9.456;2023-11-21T05:23:57;8.30;99.90
18384;DHT22;9318;48.644;9.456;2023-11-21T05:26:23;8.30;99.90
18384;DHT22;9318;48.644;9.456;2023-11-21T05:28:50;8.30;99.90
18384;DHT22;9318;48.644;9.456;2023-11-21T05:31:17;8.30;99.90
18384;DHT22;9318;48.644;9.456;2023-11-21T05:33:45;8.30;99.90
18384;DHT22;9318;48.644;9.456;2023-11-21T05:36:12;8.30;99.90
18384;DHT22;9318;48.644;9.456;2023-11-21T05:38:38;8.20;99.90
18384;DHT22;9318;48.644;9.456;2023-11-21T05:41:05;8.20;99.90
18384;DHT22;9318;48.644;9.456;2023-11-21T05:43:32;8.20;99.90
18384;DHT22;9318;48.644;9.456;2023-11-21T05:46:01;8.20;99.90
18384;DHT22;9318;48.644;9.456;2023-11-21T05:48:27;8.20;99.90
18384;DHT22;9318;48.644;9.456;2023-11-21T05:50:55;8.20;99.90
18384;DHT22;9318;48.644;9.456;2023-11-21T05:53:22;8.20;99.90
18384;DHT22;9318;48.644;9.456;2023-11-21T05:55:49;8.20;99.90
18384;DHT22;9318;48.644;9.456;2023-11-21T05:58:16;8.10;99.90
18384;DHT22;9318;48.644;9.456;2023-11-21T06:00:42;8.20;99.90
18384;DHT22;9318;48.644;9.456;2023-11-21T06:03:09;8.10;99.90
18384;DHT22;9318;48.644;9.456;2023-11-21T06:05:36;8.10;99.90
18384;DHT22;9318;48.644;9.456;2023-11-21T06:08:05;8.10;99.90
18384;DHT22;9318;48.644;9.456;2023-11-21T06:10:32;8.10;99.90
18384;DHT22;9318;48.644;9.456;2023-11-21T06:12:59;8.10;99.90
18384;DHT22;9318;48.644;9.456;2023-11-21T06:15:26;8.10;99.90
18384;DHT22;9318;48.644;9.456;2023-11-21T06:17:53;8.10;99.90
18384;DHT22;9318;48.644;9.456;2023-11-21T06:20:20;8.10;99.90
18384;DHT22;9318;48.644;9.456;2023-11-21T06:22:49;8.10;99.90
18384;DHT22;9318;48.644;9.456;2023-11-21T06:25:18;8.10;99.90
18384;DHT22;9318;48.644;9.456;2023-11-21T06:27:45;8.10;99.90
18384;DHT22;9318;48.644;9.456;2023-11-21T06:30:13;8.10;99.90
18384;DHT22;9318;48.644;9.456;2023-11-21T06:32:41;8.10;99.90
18384;DHT22;9318;48.644;9.456;2023-11-21T06:35:11;8.10;99.90
18384;DHT22;9318;48.644;9.456;2023-11-21T06:37:39;8.10;99.90
18384;DHT22;9318;48.644;9.456;2023-11-21T06:40:07;8.10;99.90
18384;DHT22;9318;48.644;9.456;2023-11-21T06:42:36;8.00;99.90
18384;DHT22;9318;48.644;9.456;2023-11-21T06:45:04;8.10;99.90
18384;DHT22;9318;48.644;9.456;2023-11-21T06:47:31;8.10;99.90
18384;DHT22;9318;48.644;9.456;2023-11-21T06:49:59;8.10;99.90
18384;DHT22;9318;48.644;9.456;2023-11-21T06:52:26;8.10;99.90
18384;DHT22;9318;48.644;9.456;2023-11-21T06:54:52;8.10;99.90
18384;DHT22;9318;48.644;9.456;2023-11-21T06:57:20;8.10;99.90
18384;DHT22;9318;48.644;9.456;2023-11-21T06:59:48;8.10;99.90
18384;DHT22;9318;48.644;9.456;2023-11-21T07:02:16;8.10;99.90
18384;DHT22;9318;48.644;9.456;2023-11-21T07:04:43;8.10;99.90
18384;DHT22;9318;48.644;9.456;2023-11-21T07:07:10;8.10;99.90
18384;DHT22;9318;48.644;9.456;2023-11-21T07:09:37;8.20;99.90
18384;DHT22;9318;48.644;9.456;2023-11-21T07:12:04;8.20;99.90
18384;DHT22;9318;48.644;9.456;2023-11-21T07:14:33;8.20;99.90
18384;DHT22;9318;48.644;9.456;2023-11-21T07:17:01;8.20;99.90
18384;DHT22;9318;48.644;9.456;2023-11-21T07:19:27;8.20;99.90
18384;DHT22;9318;48.644;9.456;2023-11-21T07:21:54;8.30;99.90
18384;DHT22;9318;48.644;9.456;2023-11-21T07:24:21;8.30;99.90
18384;DHT22;9318;48.644;9.456;2023-11-21T07:26:48;8.30;99.90
18384;DHT22;9318;48.644;9.456;2023-11-21T07:29:14;8.30;99.90
18384;DHT22;9318;48.644;9.456;2023-11-21T07:31:41;8.30;99.90
18384;DHT22;9318;48.644;9.456;2023-11-21T07:34:09;8.40;99.90
18384;DHT22;9318;48.644;9.456;2023-11-21T07:36:37;8.40;99.90
18384;DHT22;9318;48.644;9.456;2023-11-21T07:39:04;8.40;99.90
18384;DHT22;9318;48.644;9.456;2023-11-21T07:41:32;8.50;99.90
18384;DHT22;9318;48.644;9.456;2023-11-21T07:43:58;8.50;99.90
18384;DHT22;9318;48.644;9.456;2023-11-21T07:46:26;8.60;99.90
18384;DHT22;9318;48.644;9.456;2023-11-21T07:48:53;8.60;99.90
18384;DHT22;9318;48.644;9.456;2023-11-21T07:51:21;8.70;99.90
18384;DHT22;9318;48.644;9.456;2023-11-21T07:53:48;8.90;99.90
18384;DHT22;9318;48.644;9.456;2023-11-21T07:56:15;9.00;99.90
18384;DHT22;9318;48.644;9.456;2023-11-21T07:58:42;9.00;99.90
18384;DHT22;9318;48.644;9.456;2023-11-21T08:01:10;9.10;99.90
18384;DHT22;9318;48.644;9.456;2023-11-21T08:03:37;9.10;99.90
18384;DHT22;9318;48.644;9.456;2023-11-21T08:06:04;9.10;99.90
18384;DHT22;9318;48.644;9.456;2023-11-21T08:08:32;9.00;99.90
18384;DHT22;9318;48.644;9.456;2023-11-21T08:10:59;9.00;99.90
18384;DHT22;9318;48.644;9.456;2023-11-21T08:13:28;9.00;99.90
18384;DHT22;9318;48.644;9.456;2023-11-21T08:15:56;9.00;99.90
18384;DHT22;9318;48.644;9.456;2023-11-21T08:18:27;9.00;99.90
18384;DHT22;9318;48.644;9.456;2023-11-21T08:20:54;9.10;99.90
18384;DHT22;9318;48.644;9.456;2023-11-21T08:23:21;9.10;99.90
18384;DHT22;9318;48.644;9.456;2023-11-21T08:25:52;9.10;99.90
18384;DHT22;9318;48.644;9.456;2023-11-21T08:28:19;9.20;99.90
18384;DHT22;9318;48.644;9.456;2023-11-21T08:30:48;9.20;99.90
18384;DHT22;9318;48.644;9.456;2023-11-21T08:33:15;9.30;99.90
18384;DHT22;9318;48.644;9.456;2023-11-21T08:35:42;9.30;99.90
18384;DHT22;9318;48.644;9.456;2023-11-21T08:38:09;9.40;99.90
18384;DHT22;9318;48.644;9.456;2023-11-21T08:40:36;9.40;99.90
18384;DHT22;9318;48.644;9.456;2023-11-21T08:43:04;9.50;99.90
18384;DHT22;9318;48.644;9.456;2023-11-21T08:45:31;9.50;99.90
18384;DHT22;9318;48.644;9.456;2023-11-21T08:47:59;9.40;99.90
18384;DHT22;9318;48.644;9.456;2023-11-21T08:50:26;9.40;99.90
18384;DHT22;9318;48.644;9.456;2023-11-21T08:52:53;9.40;99.90
18384;DHT22;9318;48.644;9.456;2023-11-21T08:55:21;9.40;99.90
18384;DHT22;9318;48.644;9.456;2023-11-21T08:57:48;9.50;99.90
18384;DHT22;9318;48.644;9.456;2023-11-21T09:00:16;9.50;99.90
18384;DHT22;9318;48.644;9.456;2023-11-21T09:02:44;9.40;99.90
18384;DHT22;9318;48.644;9.456;2023-11-21T09:05:12;9.40;99.90
18384;DHT22;9318;48.644;9.456;2023-11-21T09:07:40;9.50;99.90
18384;DHT22;9318;48.644;9.456;2023-11-21T09:10:08;9.60;99.90
18384;DHT22;9318;48.644;9.456;2023-11-21T09:12:36;9.60;99.90
18384;DHT22;9318;48.644;9.456;2023-11-21T09:15:04;9.70;99.90
18384;DHT22;9318;48.644;9.456;2023-11-21T09:17:33;9.80;99.90
18384;DHT22;9318;48.644;9.456;2023-11-21T09:20:00;9.80;99.90
18384;DHT22;9318;48.644;9.456;2023-11-21T09:22:29;9.90;99.90
18384;DHT22;9318;48.644;9.456;2023-11-21T09:24:57;9.90;99.90
18384;DHT22;9318;48.644;9.456;2023-11-21T09:27:24;9.90;99.90
18384;DHT22;9318;48.644;9.456;2023-11-21T09:29:51;9.90;99.90
18384;DHT22;9318;48.644;9.456;2023-11-21T09:32:18;9.90;99.90
18384;DHT22;9318;48.644;9.456;2023-11-21T09:34:48;9.90;99.90
18384;DHT22;9318;48.644;9.456;2023-11-21T09:37:14;9.90;99.90
18384;DHT22;9318;48.644;9.456;2023-11-21T09:39:41;10.00;99.90
18384;DHT22;9318;48.644;9.456;2023-11-21T09:42:10;10.20;99.90
18384;DHT22;9318;48.644;9.456;2023-11-21T09:45:02;10.30;99.90
18384;DHT22;9318;48.644;9.456;2023-11-21T09:47:32;10.30;99.90
18384;DHT22;9318;48.644;9.456;2023-11-21T09:50:05;10.40;99.90
18384;DHT22;9318;48.644;9.456;2023-11-21T09:52:39;10.40;99.90
18384;DHT22;9318;48.644;9.456;2023-11-21T09:55:10;10.40;99.90
18384;DHT22;9318;48.644;9.456;2023-11-21T09:57:41;10.50;99.90
18384;DHT22;9318;48.644;9.456;2023-11-21T10:00:09;10.60;99.90
18384;DHT22;9318;48.644;9.456;2023-11-21T10:02:38;10.70;99.90
18384;DHT22;9318;48.644;9.456;2023-11-21T10:05:07;10.90;99.90
18384;DHT22;9318;48.644;9.456;2023-11-21T10:07:37;11.10;99.90
18384;DHT22;9318;48.644;9.456;2023-11-21T10:10:07;11.30;99.90
18384;DHT22;9318;48.644;9.456;2023-11-21T10:12:35;11.40;99.90
18384;DHT22;9318;48.644;9.456;2023-11-21T10:15:08;11.50;99.90
18384;DHT22;9318;48.644;9.456;2023-11-21T10:17:38;11.60;99.90
18384;DHT22;9318;48.644;9.456;2023-11-21T10:20:11;11.60;99.90
18384;DHT22;9318;48.644;9.456;2023-11-21T10:22:39;11.70;99.90
18384;DHT22;9318;48.644;9.456;2023-11-21T10:25:07;11.60;99.90
18384;DHT22;9318;48.644;9.456;2023-11-21T10:27:34;11.40;99.90
18384;DHT22;9318;48.644;9.456;2023-11-21T10:30:02;11.30;99.90
18384;DHT22;9318;48.644;9.456;2023-11-21T10:32:29;11.20;99.90
18384;DHT22;9318;48.644;9.456;2023-11-21T10:34:58;11.10;99.90
18384;DHT22;9318;48.644;9.456;2023-11-21T10:37:29;11.00;99.90
18384;DHT22;9318;48.644;9.456;2023-11-21T10:39:57;10.80;99.90
18384;DHT22;9318;48.644;9.456;2023-11-21T10:42:24;10.70;99.90
18384;DHT22;9318;48.644;9.456;2023-11-21T10:44:52;10.60;99.90
18384;DHT22;9318;48.644;9.456;2023-11-21T10:47:19;10.60;99.90
18384;DHT22;9318;48.644;9.456;2023-11-21T10:49:48;10.60;99.90
18384;DHT22;9318;48.644;9.456;2023-11-21T10:52:15;10.50;99.90
18384;DHT22;9318;48.644;9.456;2023-11-21T10:54:46;10.50;99.90
18384;DHT22;9318;48.644;9.456;2023-11-21T10:57:17;10.50;99.90
18384;DHT22;9318;48.644;9.456;2023-11-21T10:59:46;10.50;99.90
18384;DHT22;9318;48.644;9.456;2023-11-21T11:02:21;10.40;99.90
18384;DHT22;9318;48.644;9.456;2023-11-21T11:04:52;10.40;99.90
18384;DHT22;9318;48.644;9.456;2023-11-21T11:07:21;10.40;99.90
18384;DHT22;9318;48.644;9.456;2023-11-21T11:09:52;10.40;99.90
18384;DHT22;9318;48.644;9.456;2023-11-21T11:12:19;10.40;99.90
18384;DHT22;9318;48.644;9.456;2023-11-21T11:14:46;10.50;99.90
18384;DHT22;9318;48.644;9.456;2023-11-21T11:17:14;10.50;99.90
18384;DHT22;9318;48.644;9.456;2023-11-21T11:19:41;10.60;99.90
18384;DHT22;9318;48.644;9.456;2023-11-21T11:22:17;10.60;99.90
18384;DHT22;9318;48.644;9.456;2023-11-21T11:27:52;10.80;99.90
18384;DHT22;9318;48.644;9.456;2023-11-21T11:30:30;10.80;99.90
18384;DHT22;9318;48.644;9.456;2023-11-21T11:33:10;10.80;99.90
18384;DHT22;9318;48.644;9.456;2023-11-21T11:35:46;10.90;99.90
18384;DHT22;9318;48.644;9.456;2023-11-21T11:38:15;10.70;99.90
18384;DHT22;9318;48.644;9.456;2023-11-21T11:40:45;10.70;99.90
18384;DHT22;9318;48.644;9.456;2023-11-21T11:43:12;10.50;99.90
18384;DHT22;9318;48.644;9.456;2023-11-21T11:45:39;10.40;99.90
18384;DHT22;9318;48.644;9.456;2023-11-21T11:48:07;10.30;99.90
18384;DHT22;9318;48.644;9.456;2023-11-21T11:50:34;10.30;99.90
18384;DHT22;9318;48.644;9.456;2023-11-21T11:53:13;10.30;99.90
18384;DHT22;9318;48.644;9.456;2023-11-21T11:55:40;10.20;99.90
18384;DHT22;9318;48.644;9.456;2023-11-21T11:58:08;10.30;99.90
18384;DHT22;9318;48.644;9.456;2023-11-21T12:00:36;10.30;99.90
18384;DHT22;9318;48.644;9.456;2023-11-21T12:03:06;10.20;99.90
18384;DHT22;9318;48.644;9.456;2023-11-21T12:05:34;10.20;99.90
18384;DHT22;9318;48.644;9.456;2023-11-21T12:08:05;10.30;99.90
18384;DHT22;9318;48.644;9.456;2023-11-21T12:10:34;10.40;99.90
18384;DHT22;9318;48.644;9.456;2023-11-21T12:13:02;10.40;99.90
18384;DHT22;9318;48.644;9.456;2023-11-21T12:15:32;10.50;99.90
18384;DHT22;9318;48.644;9.456;2023-11-21T12:18:00;10.70;99.90
18384;DHT22;9318;48.644;9.456;2023-11-21T12:20:28;10.70;99.90
18384;DHT22;9318;48.644;9.456;2023-11-21T12:22:55;10.80;99.90
18384;DHT22;9318;48.644;9.456;2023-11-21T12:25:25;10.80;99.90
18384;DHT22;9318;48.644;9.456;2023-11-21T12:27:55;10.80;99.90
18384;DHT22;9318;48.644;9.456;2023-11-21T12:30:24;10.90;99.90
18384;DHT22;9318;48.644;9.456;2023-11-21T12:32:55;11.00;99.90
18384;DHT22;9318;48.644;9.456;2023-11-21T12:35:24;11.00;99.90
18384;DHT22;9318;48.644;9.456;2023-11-21T12:37:52;11.10;99.90
18384;DHT22;9318;48.644;9.456;2023-11-21T12:40:20;11.10;99.90
18384;DHT22;9318;48.644;9.456;2023-11-21T12:42:50;11.10;99.90
18384;DHT22;9318;48.644;9.456;2023-11-21T12:45:20;11.00;99.90
18384;DHT22;9318;48.644;9.456;2023-11-21T12:47:48;11.00;99.90
18384;DHT22;9318;48.644;9.456;2023-11-21T12:50:18;11.00;99.90
18384;DHT22;9318;48.644;9.456;2023-11-21T12:52:49;11.00;99.90
18384;DHT22;9318;48.644;9.456;2023-11-21T12:55:18;11.00;99.90
18384;DHT22;9318;48.644;9.456;2023-11-21T12:57:48;11.00;99.90
18384;DHT22;9318;48.644;9.456;2023-11-21T13:00:16;10.90;99.90
18384;DHT22;9318;48.644;9.456;2023-11-21T13:02:53;10.90;99.90
18384;DHT22;9318;48.644;9.456;2023-11-21T13:05:27;10.90;99.90
18384;DHT22;9318;48.644;9.456;2023-11-21T13:07:55;10.90;99.90
18384;DHT22;9318;48.644;9.456;2023-11-21T13:10:23;10.90;99.90
18384;DHT22;9318;48.644;9.456;2023-11-21T13:12:55;11.00;99.90
18384;DHT22;9318;48.644;9.456;2023-11-21T13:15:23;11.00;99.90
18384;DHT22;9318;48.644;9.456;2023-11-21T13:17:50;11.10;99.90
18384;DHT22;9318;48.644;9.456;2023-11-21T13:20:19;11.10;99.90
18384;DHT22;9318;48.644;9.456;2023-11-21T13:22:48;11.10;99.90
18384;DHT22;9318;48.644;9.456;2023-11-21T13:25:16;11.10;99.90
18384;DHT22;9318;48.644;9.456;2023-11-21T13:27:45;11.20;99.90
18384;DHT22;9318;48.644;9.456;2023-11-21T13:30:13;11.10;99.90
18384;DHT22;9318;48.644;9.456;2023-11-21T13:32:43;11.10;99.90
18384;DHT22;9318;48.644;9.456;2023-11-21T13:35:11;11.00;99.90
18384;DHT22;9318;48.644;9.456;2023-11-21T13:37:49;11.00;99.90
18384;DHT22;9318;48.644;9.456;2023-11-21T13:40:20;10.90;99.90
18384;DHT22;9318;48.644;9.456;2023-11-21T13:42:49;10.90;99.90
18384;DHT22;9318;48.644;9.456;2023-11-21T13:45:19;10.80;99.90
18384;DHT22;9318;48.644;9.456;2023-11-21T13:47:47;10.80;99.90
18384;DHT22;9318;48.644;9.456;2023-11-21T13:50:16;10.70;99.90
18384;DHT22;9318;48.644;9.456;2023-11-21T13:52:49;10.70;99.90
18384;DHT22;9318;48.644;9.456;2023-11-21T13:55:18;10.60;99.90
18384;DHT22;9318;48.644;9.456;2023-11-21T13:57:45;10.50;99.90
18384;DHT22;9318;48.644;9.456;2023-11-21T14:00:15;10.50;99.90
18384;DHT22;9318;48.644;9.456;2023-11-21T14:03:06;10.50;99.90
18384;DHT22;9318;48.644;9.456;2023-11-21T14:05:41;10.40;99.90
18384;DHT22;9318;48.644;9.456;2023-11-21T14:08:10;10.40;99.90
18384;DHT22;9318;48.644;9.456;2023-11-21T14:10:42;10.40;99.90
18384;DHT22;9318;48.644;9.456;2023-11-21T14:13:09;10.30;99.90
18384;DHT22;9318;48.644;9.456;2023-11-21T14:15:37;10.30;99.90
18384;DHT22;9318;48.644;9.456;2023-11-21T14:18:07;10.20;99.90
18384;DHT22;9318;48.644;9.456;2023-11-21T14:20:36;10.20;99.90
18384;DHT22;9318;48.644;9.456;2023-11-21T14:23:03;10.20;99.90
18384;DHT22;9318;48.644;9.456;2023-11-21T14:25:33;10.20;99.90
18384;DHT22;9318;48.644;9.456;2023-11-21T14:28:02;10.20;99.90
18384;DHT22;9318;48.644;9.456;2023-11-21T14:30:30;10.20;99.90
18384;DHT22;9318;48.644;9.456;2023-11-21T14:32:58;10.10;99.90
18384;DHT22;9318;48.644;9.456;2023-11-21T14:35:26;10.10;99.90
18384;DHT22;9318;48.644;9.456;2023-11-21T14:37:55;10.10;99.90
18384;DHT22;9318;48.644;9.456;2023-11-21T14:40:23;10.10;99.90
18384;DHT22;9318;48.644;9.456;2023-11-21T14:42:52;10.10;99.90
18384;DHT22;9318;48.644;9.456;2023-11-21T14:45:21;10.10;99.90
18384;DHT22;9318;48.644;9.456;2023-11-21T14:47:51;10.10;99.90
18384;DHT22;9318;48.644;9.456;2023-11-21T14:50:26;10.10;99.90
18384;DHT22;9318;48.644;9.456;2023-11-21T14:53:06;10.00;99.90
18384;DHT22;9318;48.644;9.456;2023-11-21T14:55:34;10.00;99.90
18384;DHT22;9318;48.644;9.456;2023-11-21T14:58:17;10.00;99.90
18384;DHT22;9318;48.644;9.456;2023-11-21T15:00:52;10.00;99.90
18384;DHT22;9318;48.644;9.456;2023-11-21T15:03:23;9.90;99.90
18384;DHT22;9318;48.644;9.456;2023-11-21T15:06:08;9.90;99.90
18384;DHT22;9318;48.644;9.456;2023-11-21T15:08:56;9.90;99.90
18384;DHT22;9318;48.644;9.456;2023-11-21T15:11:54;9.80;99.90
18384;DHT22;9318;48.644;9.456;2023-11-21T15:14:26;9.80;99.90
18384;DHT22;9318;48.644;9.456;2023-11-21T15:16:57;9.80;99.90
18384;DHT22;9318;48.644;9.456;2023-11-21T15:19:25;9.70;99.90
18384;DHT22;9318;48.644;9.456;2023-11-21T15:21:53;9.70;99.90
18384;DHT22;9318;48.644;9.456;2023-11-21T15:24:20;9.70;99.90
18384;DHT22;9318;48.644;9.456;2023-11-21T15:26:47;9.70;99.90
18384;DHT22;9318;48.644;9.456;2023-11-21T15:29:14;9.70;99.90
18384;DHT22;9318;48.644;9.456;2023-11-21T15:31:43;9.70;99.90
18384;DHT22;9318;48.644;9.456;2023-11-21T15:34:14;9.60;99.90
18384;DHT22;9318;48.644;9.456;2023-11-21T15:36:40;9.60;99.90
18384;DHT22;9318;48.644;9.456;2023-11-21T15:39:08;9.50;99.90
18384;DHT22;9318;48.644;9.456;2023-11-21T15:41:36;9.50;99.90
18384;DHT22;9318;48.644;9.456;2023-11-21T15:44:04;9.40;99.90
18384;DHT22;9318;48.644;9.456;2023-11-21T15:46:33;9.40;99.90
18384;DHT22;9318;48.644;9.456;2023-11-21T15:49:01;9.40;99.90
18384;DHT22;9318;48.644;9.456;2023-11-21T15:51:36;9.30;99.90
18384;DHT22;9318;48.644;9.456;2023-11-21T15:54:03;9.30;99.90
18384;DHT22;9318;48.644;9.456;2023-11-21T15:56:29;9.30;99.90
18384;DHT22;9318;48.644;9.456;2023-11-21T15:58:56;9.20;99.90
18384;DHT22;9318;48.644;9.456;2023-11-21T16:01:23;9.20;99.90
18384;DHT22;9318;48.644;9.456;2023-11-21T16:03:51;9.20;99.90
18384;DHT22;9318;48.644;9.456;2023-11-21T16:06:20;9.20;99.90
18384;DHT22;9318;48.644;9.456;2023-11-21T16:08:46;9.20;99.90